Time;durP1;ratioP1;P1;durP2;ratioP2;P2;SDS_P1;SDS_P2;PMS_P1;PMS_P2;Temp;Humidity;BMP_temperature;BMP_pressure;BME280_temperature;BME280_humidity;BME280_pressure;Samples;Min_cycle;Max_cycle;Signal;HPM_P1;HPM_P2
2023/02/25 00:00:29;;;;;;;0.50;0.50;;;;;;;3.29;96.81;95730.19;29395;234;63004;-64
2023/02/25 00:01:10;;;;;;;0.60;0.60;;;;;;;3.36;96.44;95719.97;29373;240;63009;-59
2023/02/25 00:01:41;;;;;;;0.60;0.60;;;;;;;3.36;96.00;95728.03;29439;235;63004;-63
2023/02/25 00:02:13;;;;;;;0.60;0.60;;;;;;;3.32;96.10;95726.97;29373;347;63009;-63
2023/02/25 00:02:49;;;;;;;0.60;0.60;;;;;;;3.31;96.07;95730.72;29394;197;64009;-65
2023/02/25 00:03:20;;;;;;;0.60;0.60;;;;;;;3.36;96.14;95730.72;29395;205;63009;-67
2023/02/25 00:03:53;;;;;;;1.33;1.33;;;;;;;3.40;95.41;95730.16;29395;204;63005;-62
2023/02/25 00:04:27;;;;;;;0.60;0.60;;;;;;;3.39;95.26;95731.25;29395;209;63009;-61
2023/02/25 00:05:05;;;;;;;0.60;0.60;;;;;;;3.37;95.32;95729.62;29395;211;63005;-64
2023/02/25 00:05:42;;;;;;;0.70;0.70;;;;;;;3.36;95.64;95722.66;29395;206;63009;-64
2023/02/25 00:06:15;;;;;;;0.60;0.60;;;;;;;3.33;95.78;95723.22;29395;220;63005;-64
2023/02/25 00:06:46;;;;;;;0.60;0.60;;;;;;;3.29;95.78;95722.16;29395;280;63009;-59
2023/02/25 00:07:17;;;;;;;0.50;0.50;;;;;;;3.32;96.16;95721.59;29394;245;64009;-69
2023/02/25 00:07:49;;;;;;;0.60;0.60;;;;;;;3.33;95.97;95731.25;29395;215;63009;-62
2023/02/25 00:08:20;;;;;;;0.60;0.60;;;;;;;3.35;95.96;95729.09;29395;221;63008;-67
2023/02/25 00:08:53;;;;;;;0.50;0.50;;;;;;;3.37;95.70;95724.28;29395;202;63009;-62
2023/02/25 00:09:24;;;;;;;0.60;0.60;;;;;;;3.44;95.40;95723.97;29395;214;63004;-57
2023/02/25 00:09:55;;;;;;;0.60;0.60;;;;;;;3.52;94.39;95719.88;29395;285;63009;-70
2023/02/25 00:10:26;;;;;;;0.60;0.60;;;;;;;3.57;93.01;95714.50;29395;281;63005;-64
2023/02/25 00:11:04;;;;;;;0.60;0.60;;;;;;;3.58;92.68;95726.84;29395;216;63017;-62
2023/02/25 00:11:37;;;;;;;0.60;0.60;;;;;;;3.53;92.69;95721.50;29395;199;63005;-63
2023/02/25 00:12:09;;;;;;;0.50;0.50;;;;;;;3.51;93.44;95726.34;29395;276;63009;-61
2023/02/25 00:12:41;;;;;;;0.52;0.52;;;;;;;3.51;93.70;95729.00;29394;216;64009;-66
2023/02/25 00:13:12;;;;;;;0.60;0.60;;;;;;;3.50;93.38;95730.88;29395;199;63015;-66
2023/02/25 00:13:44;;;;;;;0.52;0.52;;;;;;;3.50;93.66;95722.03;29395;196;63004;-67
2023/02/25 00:14:15;;;;;;;0.60;0.60;;;;;;;3.47;93.38;95728.75;29395;222;63009;-66
2023/02/25 00:14:47;;;;;;;22.55;21.17;;;;;;;3.45;93.47;95730.13;29385;254;65009;-61
2023/02/25 00:15:19;;;;;;;0.60;0.60;;;;;;;3.45;93.43;95724.78;29373;212;63009;-67
2023/02/25 00:15:50;;;;;;;0.60;0.60;;;;;;;3.46;93.70;95727.19;29395;211;63004;-67
2023/02/25 00:16:23;;;;;;;0.60;0.60;;;;;;;3.47;93.58;95727.97;29394;220;64013;-68
2023/02/25 00:16:56;;;;;;;0.60;0.60;;;;;;;3.48;93.36;95721.53;29395;244;63004;-63
2023/02/25 00:17:27;;;;;;;0.60;0.60;;;;;;;3.43;93.36;95721.56;29394;231;64009;-65
2023/02/25 00:18:00;;;;;;;0.70;0.70;;;;;;;3.43;93.70;95721.56;29395;223;63005;-66
2023/02/25 00:18:32;;;;;;;0.60;0.60;;;;;;;3.44;93.41;95729.34;29395;205;63009;-66
2023/02/25 00:19:03;;;;;;;0.73;0.73;;;;;;;3.41;93.06;95729.88;29395;241;63005;-58
2023/02/25 00:19:35;;;;;;;0.60;0.60;;;;;;;3.38;93.37;95730.44;29394;228;64013;-64
2023/02/25 00:20:12;;;;;;;0.60;0.60;;;;;;;3.36;93.67;95722.66;29395;240;63005;-64
2023/02/25 00:20:44;;;;;;;0.50;0.50;;;;;;;3.31;93.83;95733.41;29395;202;63009;-65
2023/02/25 00:21:16;;;;;;;0.60;0.60;;;;;;;3.28;93.94;95731.28;29394;238;64009;-61
2023/02/25 00:21:47;;;;;;;0.60;0.60;;;;;;;3.27;94.37;95734.22;29395;227;63009;-64
2023/02/25 00:22:19;;;;;;;0.60;0.60;;;;;;;3.26;94.86;95732.63;29395;215;63004;-64
2023/02/25 00:22:50;;;;;;;0.60;0.60;;;;;;;3.24;95.40;95724.84;29395;232;63009;-65
2023/02/25 00:23:22;;;;;;;0.75;0.75;;;;;;;3.24;95.16;95724.84;29395;235;63004;-64
2023/02/25 00:23:53;;;;;;;0.60;0.60;;;;;;;3.21;95.39;95725.41;29395;203;63008;-59
2023/02/25 00:24:24;;;;;;;0.60;0.60;;;;;;;3.19;95.57;95724.87;29395;288;63005;-64
2023/02/25 00:24:56;;;;;;;0.60;0.60;;;;;;;3.20;95.81;95725.69;29395;274;63009;-68
2023/02/25 00:25:28;;;;;;;0.60;0.60;;;;;;;3.21;95.83;95717.34;29394;224;64009;-64
2023/02/25 00:26:02;;;;;;;0.60;0.60;;;;;;;3.27;95.60;95721.62;29395;216;63009;-65
2023/02/25 00:26:34;;;;;;;0.60;0.60;;;;;;;3.30;95.77;95718.41;29395;232;63010;-59
2023/02/25 00:27:05;;;;;;;0.60;0.60;;;;;;;3.32;95.55;95718.13;29395;229;63009;-70
2023/02/25 00:27:36;;;;;;;0.60;0.60;;;;;;;3.36;94.94;95717.31;29395;197;63010;-63
2023/02/25 00:28:07;;;;;;;0.60;0.60;;;;;;;3.47;93.82;95718.03;29395;226;63009;-64
2023/02/25 00:28:40;;;;;;;0.50;0.50;;;;;;;3.48;93.72;95718.84;29395;218;63004;-62
2023/02/25 00:29:11;;;;;;;0.60;0.60;;;;;;;3.48;93.28;95713.47;29395;233;63009;-68
2023/02/25 00:29:42;;;;;;;0.70;0.70;;;;;;;3.53;92.96;95718.81;29394;245;64009;-72
2023/02/25 00:30:14;;;;;;;0.60;0.60;;;;;;;3.53;92.72;95710.75;29395;219;63015;-58
2023/02/25 00:30:46;;;;;;;0.60;0.60;;;;;;;3.45;92.69;95709.50;29394;202;64008;-64
2023/02/25 00:31:24;;;;;;;0.50;0.50;;;;;;;3.41;93.20;95713.78;29394;196;64013;-63
2023/02/25 00:31:55;;;;;;;0.60;0.60;;;;;;;3.36;93.55;95711.94;29395;329;63005;-63
2023/02/25 00:32:26;;;;;;;0.60;0.60;;;;;;;3.34;93.60;95715.97;29395;252;63021;-62
2023/02/25 00:32:57;;;;;;;0.60;0.60;;;;;;;3.31;94.37;95713.84;29395;318;63005;-63
2023/02/25 00:33:29;;;;;;;0.60;0.60;;;;;;;3.27;94.30;95718.94;29395;219;63009;-60
2023/02/25 00:34:01;;;;;;;0.60;0.60;;;;;;;3.22;94.90;95720.84;29395;220;63005;-63
2023/02/25 00:34:33;;;;;;;0.60;0.60;;;;;;;3.18;94.89;95717.91;29395;223;63009;-62
2023/02/25 00:35:05;;;;;;;0.52;0.52;;;;;;;3.16;95.46;95719.25;29395;197;63005;-63
2023/02/25 00:35:40;;;;;;;0.60;0.60;;;;;;;3.16;95.29;95722.72;29394;258;64013;-66
2023/02/25 00:36:19;;;;;;;0.60;0.60;;;;;;;3.15;95.73;95726.50;29395;238;63004;-63
2023/02/25 00:36:50;;;;;;;0.60;0.60;;;;;;;3.17;95.70;95718.97;29395;218;63009;-65
2023/02/25 00:37:21;;;;;;;0.60;0.60;;;;;;;3.16;95.43;95720.06;29395;220;63011;-62
2023/02/25 00:37:53;;;;;;;0.60;0.60;;;;;;;3.13;95.76;95720.59;29395;215;63009;-62
2023/02/25 00:38:26;;;;;;;0.60;0.60;;;;;;;3.10;96.10;95718.50;29395;214;63004;-62
2023/02/25 00:38:57;;;;;;;0.60;0.60;;;;;;;3.07;96.01;95718.25;29395;244;63004;-63
2023/02/25 00:39:40;;;;;;;0.65;0.65;;;;;;;3.03;95.97;95717.97;29395;199;63008;-65
2023/02/25 00:40:15;;;;;;;0.60;0.60;;;;;;;3.02;96.54;95732.44;29395;221;63009;-64
2023/02/25 00:40:46;;;;;;;0.60;0.60;;;;;;;3.04;96.85;95730.31;29394;240;64009;-63
2023/02/25 00:41:21;;;;;;;0.60;0.60;;;;;;;3.05;96.87;95737.28;29395;225;63009;-63
2023/02/25 00:41:52;;;;;;;0.60;0.60;;;;;;;3.05;97.24;95736.47;29395;222;63000;-62
2023/02/25 00:42:24;;;;;;;0.60;0.60;;;;;;;3.02;97.30;95735.94;29395;228;63009;-62
2023/02/25 00:42:55;;;;;;;0.60;0.60;;;;;;;3.01;97.37;95738.88;29395;235;63005;-63
2023/02/25 00:43:29;;;;;;;0.60;0.60;;;;;;;3.00;97.45;95739.97;29395;296;63009;-63
2023/02/25 00:44:01;;;;;;;0.60;0.60;;;;;;;2.97;97.65;95741.31;29395;282;63004;-61
2023/02/25 00:44:33;;;;;;;0.60;0.60;;;;;;;2.97;97.68;95741.31;29394;228;64013;-63
2023/02/25 00:45:06;;;;;;;0.60;0.60;;;;;;;2.98;97.96;95739.44;29395;268;63004;-63
2023/02/25 00:45:41;;;;;;;0.60;0.60;;;;;;;2.97;97.94;95738.63;29395;240;63007;-62
2023/02/25 00:46:17;;;;;;;0.60;0.60;;;;;;;2.98;97.86;95742.09;29395;230;63004;-63
2023/02/25 00:46:49;;;;;;;0.60;0.60;;;;;;;2.97;97.75;95737.81;29395;211;63009;-60
2023/02/25 00:47:20;;;;;;;0.60;0.60;;;;;;;2.95;98.27;95738.09;29395;240;63005;-63
2023/02/25 00:47:51;;;;;;;0.60;0.60;;;;;;;2.95;98.27;95737.28;29395;287;63009;-62
2023/02/25 00:48:23;;;;;;;0.60;0.60;;;;;;;2.96;98.57;95738.91;29395;274;63005;-62
2023/02/25 00:48:54;;;;;;;0.60;0.60;;;;;;;2.94;98.23;95741.84;29395;208;63009;-63
2023/02/25 00:49:26;;;;;;;0.60;0.60;;;;;;;2.96;98.79;95733.53;29394;286;64009;-65
2023/02/25 00:49:57;;;;;;;0.60;0.60;;;;;;;2.96;98.50;95730.84;29395;234;63009;-63
2023/02/25 00:50:28;;;;;;;0.60;0.60;;;;;;;2.96;99.02;95728.97;29395;216;63005;-63
2023/02/25 00:51:11;;;;;;;0.60;0.60;;;;;;;3.02;98.88;95730.56;29395;227;63009;-65
2023/02/25 00:51:42;;;;;;;0.70;0.70;;;;;;;3.10;98.22;95725.72;29395;203;63004;-62
2023/02/25 00:52:14;;;;;;;0.60;0.60;;;;;;;3.16;97.27;95722.72;29395;198;63009;-63
2023/02/25 00:52:46;;;;;;;0.60;0.60;;;;;;;3.11;97.10;95725.47;29395;226;63007;-64
2023/02/25 00:53:19;;;;;;;0.60;0.60;;;;;;;3.15;96.46;95725.69;29395;220;63009;-63
2023/02/25 00:53:52;;;;;;;0.60;0.60;;;;;;;3.15;96.66;95723.81;29395;233;63004;-62
2023/02/25 00:54:23;;;;;;;0.52;0.52;;;;;;;3.16;97.16;95721.94;29395;203;63009;-63
2023/02/25 00:54:55;;;;;;;0.60;0.60;;;;;;;3.18;96.78;95731.31;29394;227;64009;-68
2023/02/25 00:55:32;;;;;;;0.60;0.60;;;;;;;3.23;95.87;95733.97;29395;308;63013;-64
2023/02/25 00:56:05;;;;;;;0.60;0.60;;;;;;;3.20;96.11;95733.72;29395;202;63005;-62
2023/02/25 00:56:37;;;;;;;0.60;0.60;;;;;;;3.19;95.60;95732.09;29395;196;63009;-62
2023/02/25 00:57:11;;;;;;;0.60;0.60;;;;;;;3.16;95.95;95733.47;29395;292;63005;-63
2023/02/25 00:57:42;;;;;;;0.60;0.60;;;;;;;3.17;95.92;95735.06;29396;244;63009;-62
2023/02/25 00:58:14;;;;;;;0.60;0.60;;;;;;;3.20;96.42;95734.50;29395;225;63005;-63
2023/02/25 00:58:46;;;;;;;0.60;0.60;;;;;;;3.29;94.73;95738.25;29395;284;63004;-61
2023/02/25 00:59:18;;;;;;;0.60;0.60;;;;;;;3.30;94.30;95739.84;29395;242;63004;-60
2023/02/25 00:59:49;;;;;;;1.23;1.02;;;;;;;3.27;94.08;95735.03;29394;266;64013;-63
2023/02/25 01:00:20;;;;;;;0.60;0.60;;;;;;;3.27;94.45;95739.59;29395;283;63007;-63
2023/02/25 01:00:52;;;;;;;0.60;0.60;;;;;;;3.25;94.55;95741.75;29395;236;63009;-63
2023/02/25 01:01:32;;;;;;;0.60;0.60;;;;;;;3.21;94.93;95744.16;29395;335;63004;-62
2023/02/25 01:02:03;;;;;;;0.60;0.60;;;;;;;3.19;94.56;95742.84;29395;237;63016;-63
2023/02/25 01:02:35;;;;;;;0.60;0.60;;;;;;;3.17;94.98;95745.78;29395;303;63005;-62
2023/02/25 01:03:06;;;;;;;0.60;0.60;;;;;;;3.20;94.97;95739.87;29395;202;63009;-63
2023/02/25 01:03:37;;;;;;;0.60;0.60;;;;;;;3.19;95.10;95740.94;29395;228;63005;-61
2023/02/25 01:04:09;;;;;;;0.60;0.60;;;;;;;3.22;94.76;95742.28;29395;203;63009;-63
2023/02/25 01:04:40;;;;;;;0.60;0.60;;;;;;;3.19;94.76;95740.94;29394;211;64009;-61
2023/02/25 01:05:13;;;;;;;0.90;0.90;;;;;;;3.31;94.24;95741.44;29395;199;63009;-68
2023/02/25 01:05:48;;;;;;;0.60;0.60;;;;;;;3.34;93.22;95738.22;29395;206;63005;-62
2023/02/25 01:06:20;;;;;;;0.60;0.60;;;;;;;3.36;93.22;95738.75;29394;226;64013;-75
2023/02/25 01:06:53;;;;;;;0.60;0.60;;;;;;;3.43;92.47;95743.81;29395;239;63004;-60
2023/02/25 01:07:24;;;;;;;0.60;0.60;;;;;;;3.45;91.59;95738.19;29395;238;63009;-63
2023/02/25 01:07:55;;;;;;;0.60;0.60;;;;;;;3.50;92.13;95743.50;29395;230;63004;-63
2023/02/25 01:08:26;;;;;;;0.60;0.60;;;;;;;3.52;91.33;95735.97;29395;292;63009;-62
2023/02/25 01:08:59;;;;;;;0.60;0.60;;;;;;;3.46;91.04;95737.91;29394;198;64008;-63
2023/02/25 01:09:30;;;;;;;0.60;0.60;;;;;;;3.41;91.45;95745.16;29394;199;64009;-62
2023/02/25 01:10:02;;;;;;;0.70;0.70;;;;;;;3.41;92.19;95751.34;29395;236;63005;-62
2023/02/25 01:10:33;;;;;;;0.60;0.60;;;;;;;3.42;92.14;95744.09;29395;222;63009;-61
2023/02/25 01:11:26;;;;;;;0.60;0.60;;;;;;;3.53;90.53;95759.03;29394;220;64009;-62
2023/02/25 01:11:57;;;;;;;0.60;0.60;;;;;;;3.49;90.28;95749.94;29395;199;63009;-67
2023/02/25 01:12:28;;;;;;;0.60;0.60;;;;;;;3.45;90.79;95756.97;29395;211;63005;-63
2023/02/25 01:13:00;;;;;;;0.60;0.60;;;;;;;3.45;91.40;95752.41;29395;196;63009;-63
2023/02/25 01:13:31;;;;;;;0.60;0.60;;;;;;;3.41;91.61;95753.22;29395;218;63004;-63
2023/02/25 01:14:09;;;;;;;0.60;0.60;;;;;;;3.40;92.12;95751.62;29394;244;64013;-62
2023/02/25 01:14:41;;;;;;;0.55;0.55;;;;;;;3.44;92.30;95755.34;29395;225;63004;-71
2023/02/25 01:15:13;;;;;;;0.60;0.60;;;;;;;3.37;90.64;95750.28;29395;260;63009;-63
2023/02/25 01:15:44;;;;;;;0.60;0.60;;;;;;;3.36;91.11;95744.12;29395;219;63012;-65
2023/02/25 01:16:20;;;;;;;0.60;0.60;;;;;;;3.44;90.56;95744.62;29395;239;63008;-62
2023/02/25 01:16:56;;;;;;;0.60;0.60;;;;;;;3.45;90.97;95746.22;29395;209;63010;-69
2023/02/25 01:17:28;;;;;;;0.60;0.60;;;;;;;3.41;91.04;95751.34;29395;240;63009;-61
2023/02/25 01:17:59;;;;;;;0.60;0.60;;;;;;;3.40;91.66;95748.94;29395;297;63005;-63
2023/02/25 01:18:30;;;;;;;0.60;0.60;;;;;;;3.41;92.00;95742.50;29394;273;64014;-62
2023/02/25 01:19:05;;;;;;;0.52;0.52;;;;;;;3.44;91.33;95744.62;29395;221;63005;-63
2023/02/25 01:19:37;;;;;;;0.60;0.60;;;;;;;3.47;90.33;95744.03;29395;321;63009;-65
2023/02/25 01:20:11;;;;;;;0.50;0.50;;;;;;;3.56;89.42;95745.88;29395;302;63005;-66
2023/02/25 01:20:42;;;;;;;0.60;0.60;;;;;;;3.61;88.78;95737.00;29395;258;63009;-66
2023/02/25 01:21:25;;;;;;;0.60;0.60;;;;;;;3.59;89.15;95737.28;29395;220;63004;-64
2023/02/25 01:21:58;;;;;;;0.60;0.60;;;;;;;3.53;89.08;95737.59;29395;369;63009;-62
2023/02/25 01:22:29;;;;;;;0.60;0.60;;;;;;;3.54;89.76;95731.16;29395;285;63004;-62
2023/02/25 01:23:01;;;;;;;4.28;1.90;;;;;;;3.51;88.95;95743.22;29395;238;63008;-70
2023/02/25 01:23:33;;;;;;;0.60;0.60;;;;;;;3.52;87.59;95741.34;29394;297;64008;-62
2023/02/25 01:24:11;;;;;;;0.60;0.60;;;;;;;3.48;87.93;95754.50;29395;232;63008;-64
2023/02/25 01:24:42;;;;;;;1.02;1.02;;;;;;;3.47;88.62;95755.56;29395;281;63005;-62
2023/02/25 01:25:17;;;;;;;0.60;0.60;;;;;;;3.53;87.67;95751.00;29395;367;63009;-62
2023/02/25 01:25:48;;;;;;;0.60;0.60;;;;;;;3.53;87.92;95749.13;29395;229;63005;-71
2023/02/25 01:26:19;;;;;;;0.70;0.70;;;;;;;3.62;86.05;95741.31;29394;197;64013;-68
2023/02/25 01:26:53;;;;;;;0.60;0.60;;;;;;;3.65;85.65;95740.75;29395;216;63005;-69
2023/02/25 01:27:25;;;;;;;0.80;0.80;;;;;;;3.67;84.80;95742.06;29395;235;63009;-69
2023/02/25 01:27:57;;;;;;;0.60;0.60;;;;;;;3.70;84.65;95743.41;29395;294;63004;-64
2023/02/25 01:28:28;;;;;;;0.57;0.57;;;;;;;3.69;85.11;95733.75;29395;255;63013;-69
2023/02/25 01:29:00;;;;;;;0.50;0.50;;;;;;;3.68;84.86;95734.84;29395;198;63004;-64
2023/02/25 01:29:37;;;;;;;1.23;1.12;;;;;;;3.70;84.56;95740.72;29395;220;63009;-64
2023/02/25 01:30:11;;;;;;;0.60;0.60;;;;;;;3.69;85.15;95747.16;29395;206;63016;-63
2023/02/25 01:30:42;;;;;;;1.00;1.00;;;;;;;3.63;84.53;95737.53;29395;218;63008;-63
2023/02/25 01:31:28;;;;;;;2.12;1.98;;;;;;;3.65;83.65;95746.13;29394;211;63999;-68
2023/02/25 01:32:02;;;;;;;0.60;0.60;;;;;;;3.64;83.76;95748.00;29395;284;63009;-63
2023/02/25 01:32:34;;;;;;;1.17;1.17;;;;;;;3.65;83.86;95754.97;29395;325;63005;-67
2023/02/25 01:33:05;;;;;;;0.70;0.70;;;;;;;3.68;83.29;95750.94;29395;240;63009;-63
2023/02/25 01:33:37;;;;;;;0.70;0.70;;;;;;;3.72;83.12;95751.97;29395;221;63005;-70
2023/02/25 01:34:12;;;;;;;0.70;0.70;;;;;;;3.75;82.34;95756.81;29395;234;63009;-68
2023/02/25 01:34:44;;;;;;;0.60;0.60;;;;;;;3.77;82.40;95760.00;29395;199;63005;-68
2023/02/25 01:35:15;;;;;;;0.90;0.90;;;;;;;3.76;81.92;95760.28;29395;206;63009;-63
2023/02/25 01:35:47;;;;;;;0.60;0.60;;;;;;;3.72;82.59;95768.09;29395;268;63004;-63
2023/02/25 01:36:18;;;;;;;0.60;0.60;;;;;;;3.70;83.42;95770.25;29394;246;64013;-64
2023/02/25 01:36:50;;;;;;;0.60;0.60;;;;;;;3.72;82.51;95770.75;29394;202;64009;-68
2023/02/25 01:37:21;;;;;;;0.60;0.60;;;;;;;3.69;82.74;95769.44;29394;210;64013;-67
2023/02/25 01:37:54;;;;;;;0.60;0.60;;;;;;;3.67;83.60;95776.16;29395;221;63012;-63
2023/02/25 01:38:26;;;;;;;0.60;0.60;;;;;;;3.58;83.35;95778.59;29395;202;63008;-65
2023/02/25 01:38:58;;;;;;;0.70;0.70;;;;;;;3.55;85.08;95778.34;29395;241;63005;-60
2023/02/25 01:39:31;;;;;;;1.05;1.05;;;;;;;3.53;85.00;95788.53;29395;198;63009;-65
2023/02/25 01:40:03;;;;;;;0.60;0.60;;;;;;;3.52;84.97;95785.06;29395;229;63005;-66
2023/02/25 01:40:36;;;;;;;0.60;0.60;;;;;;;3.54;84.64;95790.16;29395;315;63009;-65
2023/02/25 01:41:08;;;;;;;0.60;0.60;;;;;;;3.54;85.01;95787.47;29373;202;63005;-60
2023/02/25 01:41:40;;;;;;;0.60;0.60;;;;;;;3.53;85.16;95785.87;29395;233;63009;-68
2023/02/25 01:42:15;;;;;;;0.60;0.60;;;;;;;3.48;85.41;95780.50;29394;243;64009;-63
2023/02/25 01:42:46;;;;;;;0.60;0.60;;;;;;;3.48;85.46;95783.19;29395;242;63009;-63
2023/02/25 01:43:17;;;;;;;0.95;0.95;;;;;;;3.52;86.00;95778.91;29395;229;63004;-62
2023/02/25 01:44:13;;;;;;;1.12;1.12;;;;;;;3.62;82.74;95784.22;29395;197;63009;-59
2023/02/25 01:45:29;;;;;;;0.60;0.60;;;;;;;3.61;82.74;95782.62;29395;232;63004;-66
2023/02/25 01:46:00;;;;;;;0.70;0.70;;;;;;;3.54;82.77;95782.09;29395;245;63004;-68
2023/02/25 01:46:32;;;;;;;0.60;0.60;;;;;;;3.54;83.70;95776.75;29395;223;63009;-64
2023/02/25 01:47:04;;;;;;;1.12;1.12;;;;;;;3.52;83.59;95784.25;29373;235;63005;-67
2023/02/25 01:47:40;;;;;;;0.70;0.70;;;;;;;3.52;82.55;95768.97;29394;211;64014;-66
2023/02/25 01:48:17;;;;;;;0.70;0.70;;;;;;;3.57;81.74;95768.94;29395;218;63009;-57
2023/02/25 01:48:48;;;;;;;0.70;0.70;;;;;;;3.58;82.01;95767.06;29395;333;63009;-62
2023/02/25 01:49:40;;;;;;;1.02;0.95;;;;;;;3.61;81.63;95777.25;29373;251;63005;-59
2023/02/25 01:50:11;;;;;;;0.60;0.60;;;;;;;3.58;81.76;95762.50;29373;249;63009;-65
2023/02/25 01:50:50;;;;;;;0.60;0.60;;;;;;;3.57;82.28;95777.00;29395;259;63004;-60
2023/02/25 01:51:25;;;;;;;0.60;0.60;;;;;;;3.55;81.87;95762.25;29373;337;63016;-71
2023/02/25 01:52:15;;;;;;;0.60;0.60;;;;;;;3.46;82.40;95767.41;29373;226;63004;-64
2023/02/25 01:52:47;;;;;;;0.60;0.60;;;;;;;3.44;82.95;95761.53;29371;241;64013;-62
2023/02/25 01:53:24;;;;;;;0.60;0.60;;;;;;;3.43;83.05;95764.47;29372;239;64004;-64
2023/02/25 01:53:57;;;;;;;0.68;0.68;;;;;;;3.40;83.73;95756.97;29395;245;63009;-63
2023/02/25 01:54:29;;;;;;;3.17;1.08;;;;;;;3.37;83.66;95753.75;29395;257;63005;-62
2023/02/25 01:55:04;;;;;;;0.60;0.60;;;;;;;3.32;84.00;95758.34;29395;199;63009;-62
2023/02/25 01:55:39;;;;;;;0.60;0.60;;;;;;;3.25;84.34;95752.47;29395;215;63005;-68
2023/02/25 01:56:14;;;;;;;0.57;0.57;;;;;;;3.20;85.22;95745.25;29395;272;63009;-66
2023/02/25 01:56:52;;;;;;;0.60;0.60;;;;;;;3.16;86.06;95744.19;29395;224;63005;-62
2023/02/25 01:57:25;;;;;;;0.60;0.60;;;;;;;3.16;86.84;95748.72;29371;229;64013;-64
2023/02/25 01:57:59;;;;;;;0.60;0.60;;;;;;;3.15;86.77;95744.44;29395;210;63005;-67
2023/02/25 01:58:33;;;;;;;0.60;0.60;;;;;;;3.13;87.05;95750.09;29395;196;63009;-64
2023/02/25 01:59:05;;;;;;;0.60;0.60;;;;;;;3.17;87.35;95751.16;29395;237;63004;-60
2023/02/25 01:59:39;;;;;;;0.70;0.70;;;;;;;3.26;85.21;95749.50;29371;205;64013;-64
2023/02/25 02:00:11;;;;;;;0.60;0.60;;;;;;;3.31;84.46;95746.81;29395;202;63004;-64
2023/02/25 02:00:43;;;;;;;0.60;0.60;;;;;;;3.36;84.10;95744.12;29395;229;63008;-71
2023/02/25 02:01:19;;;;;;;0.60;0.60;;;;;;;3.35;84.04;95753.22;29395;229;63004;-61
2023/02/25 02:01:51;;;;;;;0.70;0.70;;;;;;;3.36;84.16;95754.84;29395;299;63009;-68
2023/02/25 02:02:25;;;;;;;0.60;0.60;;;;;;;3.35;83.76;95758.59;29395;241;63005;-64
2023/02/25 02:02:58;;;;;;;0.60;0.60;;;;;;;3.39;84.33;95758.06;29395;221;63009;-65
2023/02/25 02:03:33;;;;;;;0.70;0.70;;;;;;;3.41;83.20;95761.25;29373;217;63000;-71
2023/02/25 02:04:08;;;;;;;0.60;0.60;;;;;;;3.39;82.95;95766.09;29395;236;63009;-64
2023/02/25 02:04:42;;;;;;;0.60;0.60;;;;;;;3.35;83.55;95758.59;29394;204;64009;-61
2023/02/25 02:05:15;;;;;;;0.60;0.60;;;;;;;3.29;84.28;95759.69;29395;238;63017;-63
2023/02/25 02:06:23;;;;;;;0.60;0.60;;;;;;;3.31;82.98;95749.50;29395;250;63004;-67
2023/02/25 02:06:56;;;;;;;0.50;0.50;;;;;;;3.25;83.34;95747.91;29394;230;64009;-69
2023/02/25 02:07:27;;;;;;;1.02;1.02;;;;;;;3.26;83.25;95760.22;29373;207;63009;-67
2023/02/25 02:07:59;;;;;;;0.60;0.60;;;;;;;3.27;83.46;95756.47;29373;196;63016;-67
2023/02/25 02:08:33;;;;;;;0.60;0.60;;;;;;;3.34;82.32;95759.69;29373;227;63013;-66
2023/02/25 02:09:11;;;;;;;1.35;1.25;;;;;;;3.39;81.49;95758.06;29395;218;63005;-62
2023/02/25 02:09:54;;;;;;;0.60;0.60;;;;;;;3.41;81.41;95770.09;29394;234;64014;-63
2023/02/25 02:10:26;;;;;;;0.60;0.60;;;;;;;3.48;80.89;95769.78;29395;346;63005;-67
2023/02/25 02:10:58;;;;;;;0.70;0.70;;;;;;;3.53;79.28;95764.41;29395;217;63009;-68
2023/02/25 02:11:29;;;;;;;0.70;0.70;;;;;;;3.54;78.74;95761.44;29395;223;63005;-63
2023/02/25 02:12:04;;;;;;;0.85;0.85;;;;;;;3.49;79.09;95766.03;29395;233;63009;-67
2023/02/25 02:12:43;;;;;;;3.00;1.33;;;;;;;3.46;79.92;95769.28;29395;227;63008;-61
2023/02/25 02:13:15;;;;;;;0.75;0.75;;;;;;;3.45;79.73;95759.62;29395;332;63009;-66
2023/02/25 02:13:51;;;;;;;0.50;0.50;;;;;;;3.39;80.62;95763.41;29373;214;63004;-68
2023/02/25 02:14:30;;;;;;;0.60;0.60;;;;;;;3.34;80.89;95761.56;29395;215;63015;-65
2023/02/25 02:15:07;;;;;;;0.60;0.60;;;;;;;3.26;81.47;95765.59;29394;253;64009;-69
2023/02/25 02:15:43;;;;;;;0.60;0.60;;;;;;;3.22;82.04;95767.22;29373;244;63008;-65
2023/02/25 02:16:54;;;;;;;0.60;0.60;;;;;;;3.22;82.38;95764.53;29373;211;63004;-73
2023/02/25 02:17:41;;;;;;;0.60;0.60;;;;;;;3.28;82.45;95768.81;29395;296;63005;-69
2023/02/25 02:18:12;;;;;;;0.60;0.60;;;;;;;3.27;82.94;95759.16;29373;230;63009;-64
2023/02/25 02:18:57;;;;;;;1.17;0.85;;;;;;;3.27;82.88;95764.53;29373;199;63005;-67
2023/02/25 02:20:12;;;;;;;3.10;1.87;;;;;;;3.30;82.47;95763.97;29395;231;63009;-71
2023/02/25 02:21:21;;;;;;;0.60;0.60;;;;;;;3.31;82.52;95762.09;29371;328;64009;-68
2023/02/25 02:22:08;;;;;;;0.60;0.60;;;;;;;3.29;82.72;95764.25;29373;279;63004;-64
2023/02/25 02:23:20;;;;;;;0.60;0.60;;;;;;;3.30;82.57;95755.94;29373;267;63004;-71
2023/02/25 02:24:37;;;;;;;0.60;0.60;;;;;;;3.29;81.96;95762.38;29395;312;63008;-68
2023/02/25 02:26:07;;;;;;;0.60;0.60;;;;;;;3.29;81.27;95764.25;29394;269;64009;-63
2023/02/25 02:27:14;;;;;;;0.60;0.60;;;;;;;3.32;81.41;95759.16;29373;274;63009;-63
2023/02/25 02:28:36;;;;;;;0.60;0.60;;;;;;;3.36;80.43;95767.44;29373;211;63004;-61
2023/02/25 02:30:05;;;;;;;0.60;0.60;;;;;;;3.23;81.88;95774.19;29417;242;63009;-67
2023/02/25 02:31:11;;;;;;;0.60;0.60;;;;;;;3.14;82.79;95783.84;29394;218;64008;-64
2023/02/25 02:32:02;;;;;;;0.60;0.60;;;;;;;3.07;83.43;95771.84;29373;202;63009;-66
2023/02/25 02:33:15;;;;;;;0.60;0.60;;;;;;;2.99;83.69;95781.22;29373;291;63005;-65
2023/02/25 02:34:38;;;;;;;0.60;0.60;;;;;;;2.90;84.67;95788.22;29373;270;63009;-65
2023/02/25 02:35:41;;;;;;;0.60;0.60;;;;;;;2.86;85.48;95787.13;29395;239;63004;-67
2023/02/25 02:36:58;;;;;;;0.60;0.60;;;;;;;2.79;86.20;95792.78;29394;301;64013;-66
2023/02/25 02:38:20;;;;;;;0.60;0.60;;;;;;;2.78;86.69;95785.00;29373;227;63004;-67
2023/02/25 02:39:33;;;;;;;0.60;0.60;;;;;;;2.73;86.95;95785.03;29371;241;64014;-67
2023/02/25 02:40:14;;;;;;;;;;;;;;;2.72;87.00;95780.75;29974;982;28000;-66
2023/02/25 02:41:21;;;;;;;0.60;0.60;;;;;;;2.69;86.91;95780.22;29400;215;63014;-68
2023/02/25 02:42:28;;;;;;;0.60;0.60;;;;;;;2.72;87.49;95776.19;29373;244;63009;-67
2023/02/25 02:43:37;;;;;;;0.60;0.60;;;;;;;2.73;87.49;95777.00;29373;333;63004;-67
2023/02/25 02:44:53;;;;;;;0.60;0.60;;;;;;;2.79;87.22;95775.91;29371;237;64013;-69
2023/02/25 02:46:04;;;;;;;0.60;0.60;;;;;;;2.88;86.83;95785.81;29373;207;63004;-65
2023/02/25 02:47:25;;;;;;;0.70;0.70;;;;;;;3.02;84.43;95786.06;29373;227;63009;-63
2023/02/25 02:48:02;;;;;;;0.60;0.60;;;;;;;3.04;85.08;95789.25;29394;254;64009;-64
2023/02/25 02:48:46;;;;;;;0.60;0.60;;;;;;;3.10;83.38;95790.06;29373;245;63009;-64
2023/02/25 02:49:25;;;;;;;0.60;0.60;;;;;;;3.17;83.10;95794.03;29373;297;63013;-65
2023/02/25 02:50:06;;;;;;;0.60;0.60;;;;;;;3.19;82.50;95778.47;29395;202;63009;-67
2023/02/25 02:51:09;;;;;;;0.60;0.60;;;;;;;3.20;82.47;95785.44;29395;198;63004;-69
2023/02/25 02:51:48;;;;;;;0.75;0.75;;;;;;;3.25;81.93;95780.06;29373;229;63009;-61
2023/02/25 02:52:26;;;;;;;0.60;0.60;;;;;;;3.25;81.78;95788.13;29373;323;63004;-61
2023/02/25 02:53:02;;;;;;;0.70;0.70;;;;;;;3.32;81.33;95780.59;29371;202;64002;-65
2023/02/25 02:53:47;;;;;;;0.60;0.60;;;;;;;3.36;81.14;95775.50;29373;202;63005;-70
2023/02/25 02:54:20;;;;;;;0.68;0.68;;;;;;;3.37;80.82;95772.53;29373;235;63018;-64
2023/02/25 02:54:56;;;;;;;0.60;0.60;;;;;;;3.41;80.31;95777.34;29373;229;63005;-59
2023/02/25 02:55:40;;;;;;;0.60;0.60;;;;;;;3.39;80.36;95776.81;29373;279;63009;-63
2023/02/25 02:56:15;;;;;;;0.60;0.60;;;;;;;3.35;80.69;95780.03;29373;197;63005;-64
2023/02/25 02:56:50;;;;;;;0.60;0.60;;;;;;;3.34;80.37;95777.63;29373;315;63009;-65
2023/02/25 02:57:27;;;;;;;0.60;0.60;;;;;;;3.34;80.82;95777.63;29373;285;63005;-63
2023/02/25 02:58:21;;;;;;;0.55;0.55;;;;;;;3.36;79.88;95775.50;29371;202;64013;-59
2023/02/25 02:59:07;;;;;;;0.60;0.60;;;;;;;3.36;79.82;95781.66;29373;367;63010;-62
2023/02/25 02:59:52;;;;;;;0.62;0.62;;;;;;;3.36;79.90;95781.66;29373;223;63018;-63
2023/02/25 03:00:29;;;;;;;0.60;0.60;;;;;;;3.35;79.97;95781.94;29373;204;63014;-65
2023/02/25 03:01:08;;;;;;;0.68;0.68;;;;;;;3.37;79.51;95785.94;29373;282;63015;-70